sensor_id;sensor_type;location;lat;lon;timestamp;temperature;humidity
1137;DHT22;557;48.466;7.950;2023-02-28T00:01:58;0.10;1.00
1137;DHT22;557;48.466;7.950;2023-02-28T00:04:48;0.10;1.00
1137;DHT22;557;48.466;7.950;2023-02-28T00:07:39;0.10;1.00
1137;DHT22;557;48.466;7.950;2023-02-28T00:10:29;0.10;1.00
1137;DHT22;557;48.466;7.950;2023-02-28T00:13:17;0.10;1.00
1137;DHT22;557;48.466;7.950;2023-02-28T00:16:07;0.00;1.00
1137;DHT22;557;48.466;7.950;2023-02-28T00:18:55;0.00;1.00
1137;DHT22;557;48.466;7.950;2023-02-28T00:21:42;0.00;1.00
1137;DHT22;557;48.466;7.950;2023-02-28T00:24:29;0.00;1.00
1137;DHT22;557;48.466;7.950;2023-02-28T00:27:18;0.00;1.00
1137;DHT22;557;48.466;7.950;2023-02-28T00:30:09;-0.10;1.00
1137;DHT22;557;48.466;7.950;2023-02-28T00:32:56;-0.10;5.30
1137;DHT22;557;48.466;7.950;2023-02-28T00:35:45;-0.10;7.80
1137;DHT22;557;48.466;7.950;2023-02-28T00:38:34;-0.20;19.80
1137;DHT22;557;48.466;7.950;2023-02-28T00:41:21;-0.30;33.00
1137;DHT22;557;48.466;7.950;2023-02-28T00:44:10;-0.30;38.30
1137;DHT22;557;48.466;7.950;2023-02-28T00:46:58;-0.30;53.60
1137;DHT22;557;48.466;7.950;2023-02-28T00:49:46;-0.20;51.70
1137;DHT22;557;48.466;7.950;2023-02-28T00:52:34;-0.20;65.50
1137;DHT22;557;48.466;7.950;2023-02-28T00:55:21;-0.20;77.90
1137;DHT22;557;48.466;7.950;2023-02-28T00:58:09;-0.30;89.00
1137;DHT22;557;48.466;7.950;2023-02-28T01:00:57;-0.30;99.10
1137;DHT22;557;48.466;7.950;2023-02-28T01:03:45;-0.30;99.90
1137;DHT22;557;48.466;7.950;2023-02-28T01:06:32;-0.30;99.90
1137;DHT22;557;48.466;7.950;2023-02-28T01:09:20;-0.30;99.90
1137;DHT22;557;48.466;7.950;2023-02-28T01:12:07;-0.30;99.90
1137;DHT22;557;48.466;7.950;2023-02-28T01:14:55;-0.30;99.90
1137;DHT22;557;48.466;7.950;2023-02-28T01:17:43;-0.30;99.90
1137;DHT22;557;48.466;7.950;2023-02-28T01:20:31;-0.30;99.90
1137;DHT22;557;48.466;7.950;2023-02-28T01:23:18;-0.20;99.90
1137;DHT22;557;48.466;7.950;2023-02-28T01:26:09;-0.30;99.90
1137;DHT22;557;48.466;7.950;2023-02-28T01:28:57;-0.20;99.90
1137;DHT22;557;48.466;7.950;2023-02-28T01:31:45;-0.30;99.90
1137;DHT22;557;48.466;7.950;2023-02-28T01:34:33;-0.20;99.90
1137;DHT22;557;48.466;7.950;2023-02-28T01:37:21;-0.20;99.90
1137;DHT22;557;48.466;7.950;2023-02-28T01:40:09;-0.20;99.90
1137;DHT22;557;48.466;7.950;2023-02-28T01:42:57;-0.20;99.90
1137;DHT22;557;48.466;7.950;2023-02-28T01:45:44;-0.20;99.90
1137;DHT22;557;48.466;7.950;2023-02-28T01:48:35;-0.20;99.90
1137;DHT22;557;48.466;7.950;2023-02-28T01:51:28;-0.10;99.90
1137;DHT22;557;48.466;7.950;2023-02-28T01:54:21;-0.10;99.90
1137;DHT22;557;48.466;7.950;2023-02-28T01:57:11;-0.10;99.90
1137;DHT22;557;48.466;7.950;2023-02-28T02:00:01;-0.10;99.90
1137;DHT22;557;48.466;7.950;2023-02-28T02:02:56;-0.10;99.90
1137;DHT22;557;48.466;7.950;2023-02-28T02:05:45;-0.10;99.90
1137;DHT22;557;48.466;7.950;2023-02-28T02:08:36;-0.10;99.90
1137;DHT22;557;48.466;7.950;2023-02-28T02:11:24;-0.10;99.90
1137;DHT22;557;48.466;7.950;2023-02-28T02:14:51;0.00;99.90
1137;DHT22;557;48.466;7.950;2023-02-28T02:17:46;-0.10;99.90
1137;DHT22;557;48.466;7.950;2023-02-28T02:21:02;-0.10;99.90
1137;DHT22;557;48.466;7.950;2023-02-28T02:24:35;-0.10;99.90
1137;DHT22;557;48.466;7.950;2023-02-28T02:27:48;-0.10;99.90
1137;DHT22;557;48.466;7.950;2023-02-28T02:34:32;0.00;99.90
1137;DHT22;557;48.466;7.950;2023-02-28T02:37:30;0.10;99.90
1137;DHT22;557;48.466;7.950;2023-02-28T02:40:22;0.00;99.90
1137;DHT22;557;48.466;7.950;2023-02-28T02:43:16;0.00;99.90
1137;DHT22;557;48.466;7.950;2023-02-28T02:46:08;0.00;99.90
1137;DHT22;557;48.466;7.950;2023-02-28T02:48:58;0.00;99.90
1137;DHT22;557;48.466;7.950;2023-02-28T02:51:49;0.00;99.90
1137;DHT22;557;48.466;7.950;2023-02-28T02:54:41;0.00;99.90
1137;DHT22;557;48.466;7.950;2023-02-28T02:57:33;0.00;99.90
1137;DHT22;557;48.466;7.950;2023-02-28T03:00:26;0.00;99.90
1137;DHT22;557;48.466;7.950;2023-02-28T03:03:14;0.00;99.90
1137;DHT22;557;48.466;7.950;2023-02-28T03:06:04;0.00;99.90
1137;DHT22;557;48.466;7.950;2023-02-28T03:08:53;0.00;99.90
1137;DHT22;557;48.466;7.950;2023-02-28T03:11:41;0.00;99.90
1137;DHT22;557;48.466;7.950;2023-02-28T03:14:40;0.00;99.90
1137;DHT22;557;48.466;7.950;2023-02-28T03:17:47;0.00;99.90
1137;DHT22;557;48.466;7.950;2023-02-28T03:20:42;0.00;99.90
1137;DHT22;557;48.466;7.950;2023-02-28T03:23:40;0.00;99.90
1137;DHT22;557;48.466;7.950;2023-02-28T03:26:31;0.00;1.00
1137;DHT22;557;48.466;7.950;2023-02-28T03:29:24;0.00;1.00
1137;DHT22;557;48.466;7.950;2023-02-28T03:32:20;-0.10;1.00
1137;DHT22;557;48.466;7.950;2023-02-28T03:35:14;-0.10;1.00
1137;DHT22;557;48.466;7.950;2023-02-28T03:38:10;0.00;1.00
1137;DHT22;557;48.466;7.950;2023-02-28T03:41:02;-0.10;1.00
1137;DHT22;557;48.466;7.950;2023-02-28T03:43:55;-0.10;1.00
1137;DHT22;557;48.466;7.950;2023-02-28T03:46:47;-0.10;1.00
1137;DHT22;557;48.466;7.950;2023-02-28T03:49:39;-0.10;1.00
1137;DHT22;557;48.466;7.950;2023-02-28T03:52:32;-0.10;1.00
1137;DHT22;557;48.466;7.950;2023-02-28T03:55:20;-0.10;1.00
1137;DHT22;557;48.466;7.950;2023-02-28T03:58:14;-0.10;1.00
1137;DHT22;557;48.466;7.950;2023-02-28T04:01:08;-0.10;1.00
1137;DHT22;557;48.466;7.950;2023-02-28T04:03:56;-0.10;1.00
1137;DHT22;557;48.466;7.950;2023-02-28T04:06:44;-0.10;1.00
1137;DHT22;557;48.466;7.950;2023-02-28T04:09:32;-0.10;1.00
1137;DHT22;557;48.466;7.950;2023-02-28T04:12:19;-0.20;1.00
1137;DHT22;557;48.466;7.950;2023-02-28T04:15:09;-0.20;1.00
1137;DHT22;557;48.466;7.950;2023-02-28T04:17:58;-0.20;1.00
1137;DHT22;557;48.466;7.950;2023-02-28T04:20:46;-0.20;1.00
1137;DHT22;557;48.466;7.950;2023-02-28T04:23:33;-0.20;1.00
1137;DHT22;557;48.466;7.950;2023-02-28T04:26:20;-0.30;24.40
1137;DHT22;557;48.466;7.950;2023-02-28T04:29:08;-0.30;7.60
1137;DHT22;557;48.466;7.950;2023-02-28T04:31:56;-0.30;38.70
1137;DHT22;557;48.466;7.950;2023-02-28T04:34:46;-0.40;29.80
1137;DHT22;557;48.466;7.950;2023-02-28T04:37:33;-0.40;99.90
1137;DHT22;557;48.466;7.950;2023-02-28T04:40:22;-0.50;99.90
1137;DHT22;557;48.466;7.950;2023-02-28T04:43:10;-0.50;99.90
1137;DHT22;557;48.466;7.950;2023-02-28T04:45:59;-0.50;99.90
1137;DHT22;557;48.466;7.950;2023-02-28T04:48:47;-0.50;99.90
1137;DHT22;557;48.466;7.950;2023-02-28T04:51:36;-0.60;99.90
1137;DHT22;557;48.466;7.950;2023-02-28T04:54:24;-0.60;99.90
1137;DHT22;557;48.466;7.950;2023-02-28T04:57:11;-0.60;99.90
1137;DHT22;557;48.466;7.950;2023-02-28T04:59:58;-0.60;1.00
1137;DHT22;557;48.466;7.950;2023-02-28T05:02:46;-0.50;99.90
1137;DHT22;557;48.466;7.950;2023-02-28T05:05:33;-0.60;1.00
1137;DHT22;557;48.466;7.950;2023-02-28T05:08:22;-0.60;1.00
1137;DHT22;557;48.466;7.950;2023-02-28T05:11:15;-0.60;1.00
1137;DHT22;557;48.466;7.950;2023-02-28T05:14:04;-0.60;1.00
1137;DHT22;557;48.466;7.950;2023-02-28T05:16:51;-0.60;1.00
1137;DHT22;557;48.466;7.950;2023-02-28T05:19:39;-0.60;1.00
1137;DHT22;557;48.466;7.950;2023-02-28T05:22:26;-0.70;1.00
1137;DHT22;557;48.466;7.950;2023-02-28T05:25:19;-0.70;1.00
1137;DHT22;557;48.466;7.950;2023-02-28T05:28:07;-0.70;1.00
1137;DHT22;557;48.466;7.950;2023-02-28T05:30:55;-0.70;1.00
1137;DHT22;557;48.466;7.950;2023-02-28T05:33:42;-0.70;1.00
1137;DHT22;557;48.466;7.950;2023-02-28T05:36:30;-0.80;1.00
1137;DHT22;557;48.466;7.950;2023-02-28T05:39:17;-0.80;99.90
1137;DHT22;557;48.466;7.950;2023-02-28T05:42:06;-0.90;99.90
1137;DHT22;557;48.466;7.950;2023-02-28T05:44:53;-0.90;1.00
1137;DHT22;557;48.466;7.950;2023-02-28T05:47:53;-0.90;1.00
1137;DHT22;557;48.466;7.950;2023-02-28T05:50:40;-0.90;1.00
1137;DHT22;557;48.466;7.950;2023-02-28T05:53:28;-0.90;1.00
1137;DHT22;557;48.466;7.950;2023-02-28T05:56:16;-1.00;1.00
1137;DHT22;557;48.466;7.950;2023-02-28T05:59:05;-1.00;99.90
1137;DHT22;557;48.466;7.950;2023-02-28T06:01:52;-1.00;16.30
1137;DHT22;557;48.466;7.950;2023-02-28T06:04:40;-1.00;99.90
1137;DHT22;557;48.466;7.950;2023-02-28T06:07:27;-1.00;1.00
1137;DHT22;557;48.466;7.950;2023-02-28T06:10:15;-0.90;1.00
1137;DHT22;557;48.466;7.950;2023-02-28T06:13:03;-0.90;1.00
1137;DHT22;557;48.466;7.950;2023-02-28T06:15:52;-0.90;1.00
1137;DHT22;557;48.466;7.950;2023-02-28T06:18:39;-0.90;99.90
1137;DHT22;557;48.466;7.950;2023-02-28T06:21:27;-0.80;1.00
1137;DHT22;557;48.466;7.950;2023-02-28T06:24:15;-0.80;1.00
1137;DHT22;557;48.466;7.950;2023-02-28T06:27:03;-0.80;1.00
1137;DHT22;557;48.466;7.950;2023-02-28T06:29:54;-0.80;1.00
1137;DHT22;557;48.466;7.950;2023-02-28T06:32:43;-0.70;1.00
1137;DHT22;557;48.466;7.950;2023-02-28T06:35:31;-0.70;1.00
1137;DHT22;557;48.466;7.950;2023-02-28T06:38:18;-0.70;1.00
1137;DHT22;557;48.466;7.950;2023-02-28T06:41:07;-0.60;1.00
1137;DHT22;557;48.466;7.950;2023-02-28T06:43:55;-0.60;99.90
1137;DHT22;557;48.466;7.950;2023-02-28T06:46:44;-0.60;1.00
1137;DHT22;557;48.466;7.950;2023-02-28T06:49:34;-0.60;1.00
1137;DHT22;557;48.466;7.950;2023-02-28T06:52:22;-0.60;1.00
1137;DHT22;557;48.466;7.950;2023-02-28T06:55:09;-0.50;53.80
1137;DHT22;557;48.466;7.950;2023-02-28T06:57:57;-0.50;99.90
1137;DHT22;557;48.466;7.950;2023-02-28T07:00:45;-0.40;1.00
1137;DHT22;557;48.466;7.950;2023-02-28T07:03:32;-0.30;1.00
1137;DHT22;557;48.466;7.950;2023-02-28T07:06:22;-0.30;1.00
1137;DHT22;557;48.466;7.950;2023-02-28T07:09:10;-0.30;99.90
1137;DHT22;557;48.466;7.950;2023-02-28T07:11:57;-0.30;99.90
1137;DHT22;557;48.466;7.950;2023-02-28T07:14:46;-0.30;1.00
1137;DHT22;557;48.466;7.950;2023-02-28T07:17:33;-0.20;99.90
1137;DHT22;557;48.466;7.950;2023-02-28T07:20:21;-0.20;99.90
1137;DHT22;557;48.466;7.950;2023-02-28T07:23:10;-0.10;99.90
1137;DHT22;557;48.466;7.950;2023-02-28T07:25:57;-0.10;99.90
1137;DHT22;557;48.466;7.950;2023-02-28T07:28:46;-0.10;99.90
1137;DHT22;557;48.466;7.950;2023-02-28T07:31:34;-0.10;99.90
1137;DHT22;557;48.466;7.950;2023-02-28T07:34:22;-0.10;18.60
1137;DHT22;557;48.466;7.950;2023-02-28T07:37:09;-0.10;99.90
1137;DHT22;557;48.466;7.950;2023-02-28T07:39:58;-0.10;99.90
1137;DHT22;557;48.466;7.950;2023-02-28T07:42:47;-0.10;99.90
1137;DHT22;557;48.466;7.950;2023-02-28T07:45:34;-0.10;1.00
1137;DHT22;557;48.466;7.950;2023-02-28T07:48:21;0.00;1.00
1137;DHT22;557;48.466;7.950;2023-02-28T07:51:09;0.00;99.90
1137;DHT22;557;48.466;7.950;2023-02-28T07:53:57;0.00;99.90
1137;DHT22;557;48.466;7.950;2023-02-28T07:56:46;0.00;99.90
1137;DHT22;557;48.466;7.950;2023-02-28T07:59:33;0.10;99.90
1137;DHT22;557;48.466;7.950;2023-02-28T08:02:20;0.20;1.00
1137;DHT22;557;48.466;7.950;2023-02-28T08:05:08;0.40;99.90
1137;DHT22;557;48.466;7.950;2023-02-28T08:07:55;0.40;1.00
1137;DHT22;557;48.466;7.950;2023-02-28T08:10:43;0.50;1.00
1137;DHT22;557;48.466;7.950;2023-02-28T08:13:32;0.60;9.10
1137;DHT22;557;48.466;7.950;2023-02-28T08:16:19;0.60;1.00
1137;DHT22;557;48.466;7.950;2023-02-28T08:19:08;0.60;99.90
1137;DHT22;557;48.466;7.950;2023-02-28T08:21:56;0.60;99.90
1137;DHT22;557;48.466;7.950;2023-02-28T08:24:43;0.60;1.00
1137;DHT22;557;48.466;7.950;2023-02-28T08:27:31;0.50;1.00
1137;DHT22;557;48.466;7.950;2023-02-28T08:30:19;0.60;1.00
1137;DHT22;557;48.466;7.950;2023-02-28T08:33:07;0.60;1.00
1137;DHT22;557;48.466;7.950;2023-02-28T08:35:55;0.60;1.00
1137;DHT22;557;48.466;7.950;2023-02-28T08:38:43;0.60;1.00
1137;DHT22;557;48.466;7.950;2023-02-28T08:41:30;0.60;50.50
1137;DHT22;557;48.466;7.950;2023-02-28T08:44:17;0.70;1.00
1137;DHT22;557;48.466;7.950;2023-02-28T08:47:06;0.70;99.90
1137;DHT22;557;48.466;7.950;2023-02-28T08:49:53;0.70;1.00
1137;DHT22;557;48.466;7.950;2023-02-28T08:52:42;0.80;99.90
1137;DHT22;557;48.466;7.950;2023-02-28T08:55:29;0.80;61.50
1137;DHT22;557;48.466;7.950;2023-02-28T08:58:16;0.80;99.90
1137;DHT22;557;48.466;7.950;2023-02-28T09:01:08;0.80;99.90
1137;DHT22;557;48.466;7.950;2023-02-28T09:03:59;0.90;99.90
1137;DHT22;557;48.466;7.950;2023-02-28T09:06:47;0.90;99.90
1137;DHT22;557;48.466;7.950;2023-02-28T09:09:35;1.00;99.90
1137;DHT22;557;48.466;7.950;2023-02-28T09:12:23;1.00;1.00
1137;DHT22;557;48.466;7.950;2023-02-28T09:15:11;1.10;1.00
1137;DHT22;557;48.466;7.950;2023-02-28T09:17:59;1.10;1.00
1137;DHT22;557;48.466;7.950;2023-02-28T09:20:48;1.10;1.00
1137;DHT22;557;48.466;7.950;2023-02-28T09:23:36;1.20;1.00
1137;DHT22;557;48.466;7.950;2023-02-28T09:26:25;1.10;99.90
1137;DHT22;557;48.466;7.950;2023-02-28T09:29:12;1.20;99.90
1137;DHT22;557;48.466;7.950;2023-02-28T09:32:01;1.20;99.90
1137;DHT22;557;48.466;7.950;2023-02-28T09:34:48;1.20;99.90
1137;DHT22;557;48.466;7.950;2023-02-28T09:37:37;1.20;1.00
1137;DHT22;557;48.466;7.950;2023-02-28T09:40:26;1.30;99.90
1137;DHT22;557;48.466;7.950;2023-02-28T09:43:14;1.40;99.90
1137;DHT22;557;48.466;7.950;2023-02-28T09:46:11;1.40;99.90
1137;DHT22;557;48.466;7.950;2023-02-28T09:49:01;1.50;99.90
1137;DHT22;557;48.466;7.950;2023-02-28T09:51:54;1.60;50.90
1137;DHT22;557;48.466;7.950;2023-02-28T09:54:43;1.60;1.00
1137;DHT22;557;48.466;7.950;2023-02-28T09:57:36;1.70;1.00
1137;DHT22;557;48.466;7.950;2023-02-28T10:00:28;1.70;1.00
1137;DHT22;557;48.466;7.950;2023-02-28T10:03:30;1.70;1.00
1137;DHT22;557;48.466;7.950;2023-02-28T10:06:20;1.80;1.00
1137;DHT22;557;48.466;7.950;2023-02-28T10:09:11;1.80;1.00
1137;DHT22;557;48.466;7.950;2023-02-28T10:12:04;1.80;1.00
1137;DHT22;557;48.466;7.950;2023-02-28T10:14:53;1.80;1.00
1137;DHT22;557;48.466;7.950;2023-02-28T10:17:44;1.80;1.00
1137;DHT22;557;48.466;7.950;2023-02-28T10:20:33;1.80;1.00
1137;DHT22;557;48.466;7.950;2023-02-28T10:23:25;1.90;1.00
1137;DHT22;557;48.466;7.950;2023-02-28T10:26:14;1.70;1.00
1137;DHT22;557;48.466;7.950;2023-02-28T10:29:04;1.80;1.00
1137;DHT22;557;48.466;7.950;2023-02-28T10:31:51;1.90;1.00
1137;DHT22;557;48.466;7.950;2023-02-28T10:34:39;2.00;1.00
1137;DHT22;557;48.466;7.950;2023-02-28T10:37:26;2.30;1.00
1137;DHT22;557;48.466;7.950;2023-02-28T10:40:28;2.30;1.00
1137;DHT22;557;48.466;7.950;2023-02-28T10:43:21;2.40;1.00
1137;DHT22;557;48.466;7.950;2023-02-28T10:46:15;2.40;99.90
1137;DHT22;557;48.466;7.950;2023-02-28T10:49:17;2.40;99.90
1137;DHT22;557;48.466;7.950;2023-02-28T10:52:07;2.60;99.90
1137;DHT22;557;48.466;7.950;2023-02-28T10:55:14;2.70;99.90
1137;DHT22;557;48.466;7.950;2023-02-28T10:58:03;2.70;99.90
1137;DHT22;557;48.466;7.950;2023-02-28T11:01:00;2.80;99.90
1137;DHT22;557;48.466;7.950;2023-02-28T11:03:50;2.80;99.90
1137;DHT22;557;48.466;7.950;2023-02-28T11:06:38;2.90;99.90
1137;DHT22;557;48.466;7.950;2023-02-28T11:09:29;3.00;99.90
1137;DHT22;557;48.466;7.950;2023-02-28T11:12:21;3.00;99.90
1137;DHT22;557;48.466;7.950;2023-02-28T11:15:22;3.00;99.90
1137;DHT22;557;48.466;7.950;2023-02-28T11:18:21;2.90;99.90
1137;DHT22;557;48.466;7.950;2023-02-28T11:21:16;2.90;99.90
1137;DHT22;557;48.466;7.950;2023-02-28T11:24:15;3.00;99.90
1137;DHT22;557;48.466;7.950;2023-02-28T11:27:25;3.00;99.90
1137;DHT22;557;48.466;7.950;2023-02-28T11:30:33;3.00;99.90
1137;DHT22;557;48.466;7.950;2023-02-28T11:33:23;3.00;99.90
1137;DHT22;557;48.466;7.950;2023-02-28T11:36:17;3.10;99.90
1137;DHT22;557;48.466;7.950;2023-02-28T11:39:10;3.30;99.90
1137;DHT22;557;48.466;7.950;2023-02-28T11:42:16;3.30;99.90
1137;DHT22;557;48.466;7.950;2023-02-28T11:45:18;3.30;99.90
1137;DHT22;557;48.466;7.950;2023-02-28T11:48:14;3.50;99.90
1137;DHT22;557;48.466;7.950;2023-02-28T11:51:11;3.50;99.90
1137;DHT22;557;48.466;7.950;2023-02-28T11:54:18;3.60;99.90
1137;DHT22;557;48.466;7.950;2023-02-28T11:57:22;3.80;99.90
1137;DHT22;557;48.466;7.950;2023-02-28T12:00:26;3.90;99.90
1137;DHT22;557;48.466;7.950;2023-02-28T12:03:29;4.00;99.90
1137;DHT22;557;48.466;7.950;2023-02-28T12:06:22;4.00;99.90
1137;DHT22;557;48.466;7.950;2023-02-28T12:09:32;4.10;99.90
1137;DHT22;557;48.466;7.950;2023-02-28T12:12:32;4.10;99.90
1137;DHT22;557;48.466;7.950;2023-02-28T12:15:32;4.20;99.90
1137;DHT22;557;48.466;7.950;2023-02-28T12:18:40;4.40;99.90
1137;DHT22;557;48.466;7.950;2023-02-28T12:21:38;4.50;99.90
1137;DHT22;557;48.466;7.950;2023-02-28T12:24:55;4.60;99.90
1137;DHT22;557;48.466;7.950;2023-02-28T12:27:48;4.70;99.90
1137;DHT22;557;48.466;7.950;2023-02-28T12:30:41;4.90;99.90
1137;DHT22;557;48.466;7.950;2023-02-28T12:33:34;5.00;99.90
1137;DHT22;557;48.466;7.950;2023-02-28T12:36:22;5.20;98.00
1137;DHT22;557;48.466;7.950;2023-02-28T12:39:15;5.30;86.20
1137;DHT22;557;48.466;7.950;2023-02-28T12:42:08;5.50;89.50
1137;DHT22;557;48.466;7.950;2023-02-28T12:45:01;5.60;81.80
1137;DHT22;557;48.466;7.950;2023-02-28T12:47:52;5.80;76.10
1137;DHT22;557;48.466;7.950;2023-02-28T12:50:42;6.20;63.10
1137;DHT22;557;48.466;7.950;2023-02-28T12:53:38;6.20;57.90
1137;DHT22;557;48.466;7.950;2023-02-28T12:56:37;6.20;57.30
1137;DHT22;557;48.466;7.950;2023-02-28T12:59:34;6.10;50.70
1137;DHT22;557;48.466;7.950;2023-02-28T13:06:04;6.10;46.20
1137;DHT22;557;48.466;7.950;2023-02-28T13:09:08;6.20;47.20
1137;DHT22;557;48.466;7.950;2023-02-28T13:11:58;6.10;42.50
1137;DHT22;557;48.466;7.950;2023-02-28T13:14:47;6.10;41.70
1137;DHT22;557;48.466;7.950;2023-02-28T13:17:36;6.20;39.70
1137;DHT22;557;48.466;7.950;2023-02-28T13:20:26;6.40;40.30
1137;DHT22;557;48.466;7.950;2023-02-28T13:23:39;6.60;41.40
1137;DHT22;557;48.466;7.950;2023-02-28T13:29:58;6.90;36.50
1137;DHT22;557;48.466;7.950;2023-02-28T13:32:46;6.80;31.00
1137;DHT22;557;48.466;7.950;2023-02-28T13:35:42;6.70;29.80
1137;DHT22;557;48.466;7.950;2023-02-28T13:38:39;6.60;30.20
1137;DHT22;557;48.466;7.950;2023-02-28T13:41:44;6.70;34.00
1137;DHT22;557;48.466;7.950;2023-02-28T13:48:14;7.60;29.10
1137;DHT22;557;48.466;7.950;2023-02-28T13:54:34;10.60;41.60
1137;DHT22;557;48.466;7.950;2023-02-28T13:57:33;11.10;35.00
1137;DHT22;557;48.466;7.950;2023-02-28T14:00:30;12.20;38.50
1137;DHT22;557;48.466;7.950;2023-02-28T14:03:41;12.80;36.30
1137;DHT22;557;48.466;7.950;2023-02-28T14:06:32;13.40;36.80
1137;DHT22;557;48.466;7.950;2023-02-28T14:09:24;13.70;35.20
1137;DHT22;557;48.466;7.950;2023-02-28T14:15:48;14.10;28.50
1137;DHT22;557;48.466;7.950;2023-02-28T14:18:41;13.20;21.50
1137;DHT22;557;48.466;7.950;2023-02-28T14:21:31;13.40;20.70
1137;DHT22;557;48.466;7.950;2023-02-28T14:27:37;13.40;16.70
1137;DHT22;557;48.466;7.950;2023-02-28T14:30:51;13.10;20.90
1137;DHT22;557;48.466;7.950;2023-02-28T14:33:59;13.00;10.90
1137;DHT22;557;48.466;7.950;2023-02-28T14:36:48;13.00;9.30
1137;DHT22;557;48.466;7.950;2023-02-28T14:39:41;13.10;7.90
1137;DHT22;557;48.466;7.950;2023-02-28T14:42:31;13.00;12.90
1137;DHT22;557;48.466;7.950;2023-02-28T14:45:20;12.60;1.70
1137;DHT22;557;48.466;7.950;2023-02-28T14:48:09;12.20;1.00
1137;DHT22;557;48.466;7.950;2023-02-28T14:51:00;12.00;1.00
1137;DHT22;557;48.466;7.950;2023-02-28T14:53:50;12.10;1.00
1137;DHT22;557;48.466;7.950;2023-02-28T14:56:39;12.00;1.00
1137;DHT22;557;48.466;7.950;2023-02-28T14:59:28;11.70;1.00
1137;DHT22;557;48.466;7.950;2023-02-28T15:02:21;11.70;1.00
1137;DHT22;557;48.466;7.950;2023-02-28T15:05:22;12.00;1.00
1137;DHT22;557;48.466;7.950;2023-02-28T15:08:14;12.00;1.00
1137;DHT22;557;48.466;7.950;2023-02-28T15:11:03;11.90;1.00
1137;DHT22;557;48.466;7.950;2023-02-28T15:13:53;11.80;1.00
1137;DHT22;557;48.466;7.950;2023-02-28T15:16:44;11.70;1.00
1137;DHT22;557;48.466;7.950;2023-02-28T15:19:35;11.70;1.00
1137;DHT22;557;48.466;7.950;2023-02-28T15:22:28;11.30;1.00
1137;DHT22;557;48.466;7.950;2023-02-28T15:25:20;11.20;1.00
1137;DHT22;557;48.466;7.950;2023-02-28T15:28:12;11.20;1.00
1137;DHT22;557;48.466;7.950;2023-02-28T15:31:25;11.00;1.00
1137;DHT22;557;48.466;7.950;2023-02-28T15:34:18;10.90;1.00
1137;DHT22;557;48.466;7.950;2023-02-28T15:37:26;10.50;1.00
1137;DHT22;557;48.466;7.950;2023-02-28T15:40:22;10.30;1.00
1137;DHT22;557;48.466;7.950;2023-02-28T15:43:16;9.90;1.00
1137;DHT22;557;48.466;7.950;2023-02-28T15:46:04;9.40;1.00
1137;DHT22;557;48.466;7.950;2023-02-28T15:48:54;9.10;1.00
1137;DHT22;557;48.466;7.950;2023-02-28T15:51:43;8.80;1.00
1137;DHT22;557;48.466;7.950;2023-02-28T15:54:33;8.40;1.00
1137;DHT22;557;48.466;7.950;2023-02-28T15:57:23;8.00;1.00
1137;DHT22;557;48.466;7.950;2023-02-28T16:00:15;7.70;1.00
1137;DHT22;557;48.466;7.950;2023-02-28T16:03:25;7.70;1.00
1137;DHT22;557;48.466;7.950;2023-02-28T16:06:32;7.50;1.00
1137;DHT22;557;48.466;7.950;2023-02-28T16:09:21;7.20;1.00
1137;DHT22;557;48.466;7.950;2023-02-28T16:12:09;7.00;1.00
1137;DHT22;557;48.466;7.950;2023-02-28T16:15:01;6.70;1.00
1137;DHT22;557;48.466;7.950;2023-02-28T16:17:52;6.60;1.00
1137;DHT22;557;48.466;7.950;2023-02-28T16:20:40;6.40;1.00
1137;DHT22;557;48.466;7.950;2023-02-28T16:23:27;6.30;1.00
1137;DHT22;557;48.466;7.950;2023-02-28T16:26:19;6.20;1.00
1137;DHT22;557;48.466;7.950;2023-02-28T16:29:09;6.10;1.00
1137;DHT22;557;48.466;7.950;2023-02-28T16:32:00;6.00;1.00
1137;DHT22;557;48.466;7.950;2023-02-28T16:34:49;5.90;1.00
1137;DHT22;557;48.466;7.950;2023-02-28T16:37:37;5.80;1.00
1137;DHT22;557;48.466;7.950;2023-02-28T16:40:25;5.80;1.00
1137;DHT22;557;48.466;7.950;2023-02-28T16:43:17;5.60;1.00
1137;DHT22;557;48.466;7.950;2023-02-28T16:46:10;5.50;1.00
1137;DHT22;557;48.466;7.950;2023-02-28T16:48:57;5.40;1.00
1137;DHT22;557;48.466;7.950;2023-02-28T16:51:47;5.40;1.00
1137;DHT22;557;48.466;7.950;2023-02-28T16:54:35;5.30;1.00
1137;DHT22;557;48.466;7.950;2023-02-28T16:57:23;5.20;1.00
1137;DHT22;557;48.466;7.950;2023-02-28T17:00:12;5.10;1.00
1137;DHT22;557;48.466;7.950;2023-02-28T17:03:01;4.90;1.00
1137;DHT22;557;48.466;7.950;2023-02-28T17:05:49;4.80;1.00
1137;DHT22;557;48.466;7.950;2023-02-28T17:08:37;4.60;1.00
1137;DHT22;557;48.466;7.950;2023-02-28T17:11:25;4.50;1.00
1137;DHT22;557;48.466;7.950;2023-02-28T17:14:12;4.40;1.00
1137;DHT22;557;48.466;7.950;2023-02-28T17:17:00;4.40;3.00
1137;DHT22;557;48.466;7.950;2023-02-28T17:19:47;4.30;4.60
1137;DHT22;557;48.466;7.950;2023-02-28T17:22:35;4.20;6.00
1137;DHT22;557;48.466;7.950;2023-02-28T17:25:24;4.20;13.10
1137;DHT22;557;48.466;7.950;2023-02-28T17:28:11;4.30;15.70
1137;DHT22;557;48.466;7.950;2023-02-28T17:30:58;4.30;18.00
1137;DHT22;557;48.466;7.950;2023-02-28T17:33:46;4.20;25.30
1137;DHT22;557;48.466;7.950;2023-02-28T17:36:33;4.00;39.20
1137;DHT22;557;48.466;7.950;2023-02-28T17:39:21;4.00;46.30
1137;DHT22;557;48.466;7.950;2023-02-28T17:42:11;4.00;50.50
1137;DHT22;557;48.466;7.950;2023-02-28T17:44:58;3.90;63.20
1137;DHT22;557;48.466;7.950;2023-02-28T17:47:48;3.80;81.90
1137;DHT22;557;48.466;7.950;2023-02-28T17:50:36;3.70;99.90
1137;DHT22;557;48.466;7.950;2023-02-28T17:53:24;3.60;99.90
1137;DHT22;557;48.466;7.950;2023-02-28T17:56:14;3.60;99.90
1137;DHT22;557;48.466;7.950;2023-02-28T17:59:03;3.50;99.90
1137;DHT22;557;48.466;7.950;2023-02-28T18:01:51;3.50;99.90
1137;DHT22;557;48.466;7.950;2023-02-28T18:04:38;3.30;99.90
1137;DHT22;557;48.466;7.950;2023-02-28T18:07:25;3.20;99.90
1137;DHT22;557;48.466;7.950;2023-02-28T18:10:16;3.30;99.90
1137;DHT22;557;48.466;7.950;2023-02-28T18:13:05;3.30;99.90
1137;DHT22;557;48.466;7.950;2023-02-28T18:15:53;3.20;99.90
1137;DHT22;557;48.466;7.950;2023-02-28T18:18:41;3.10;99.90
1137;DHT22;557;48.466;7.950;2023-02-28T18:21:29;3.00;99.90
1137;DHT22;557;48.466;7.950;2023-02-28T18:24:17;3.00;99.90
1137;DHT22;557;48.466;7.950;2023-02-28T18:27:09;3.00;99.90
1137;DHT22;557;48.466;7.950;2023-02-28T18:29:57;3.10;99.90
1137;DHT22;557;48.466;7.950;2023-02-28T18:32:46;3.00;99.90
1137;DHT22;557;48.466;7.950;2023-02-28T18:35:33;3.00;99.90
1137;DHT22;557;48.466;7.950;2023-02-28T18:38:20;3.00;99.90
1137;DHT22;557;48.466;7.950;2023-02-28T18:41:11;2.90;99.90
1137;DHT22;557;48.466;7.950;2023-02-28T18:43:59;2.90;99.90
1137;DHT22;557;48.466;7.950;2023-02-28T18:46:47;2.90;99.90
1137;DHT22;557;48.466;7.950;2023-02-28T18:49:36;2.90;99.90
1137;DHT22;557;48.466;7.950;2023-02-28T18:52:23;2.80;99.90
1137;DHT22;557;48.466;7.950;2023-02-28T18:55:11;2.80;99.90
1137;DHT22;557;48.466;7.950;2023-02-28T18:58:03;2.70;99.90
1137;DHT22;557;48.466;7.950;2023-02-28T19:00:51;2.70;99.90
1137;DHT22;557;48.466;7.950;2023-02-28T19:03:39;2.60;99.90
1137;DHT22;557;48.466;7.950;2023-02-28T19:06:29;2.60;99.90
1137;DHT22;557;48.466;7.950;2023-02-28T19:09:16;2.60;99.90
1137;DHT22;557;48.466;7.950;2023-02-28T19:12:03;2.60;99.90
1137;DHT22;557;48.466;7.950;2023-02-28T19:14:51;2.50;99.90
1137;DHT22;557;48.466;7.950;2023-02-28T19:17:38;2.40;99.90
1137;DHT22;557;48.466;7.950;2023-02-28T19:20:26;2.30;99.90
1137;DHT22;557;48.466;7.950;2023-02-28T19:23:14;2.30;99.90
1137;DHT22;557;48.466;7.950;2023-02-28T19:26:05;2.30;99.90
1137;DHT22;557;48.466;7.950;2023-02-28T19:28:53;2.30;99.90
1137;DHT22;557;48.466;7.950;2023-02-28T19:31:40;2.30;99.90
1137;DHT22;557;48.466;7.950;2023-02-28T19:34:27;2.30;99.90
1137;DHT22;557;48.466;7.950;2023-02-28T19:37:15;2.20;99.90
1137;DHT22;557;48.466;7.950;2023-02-28T19:40:04;2.20;99.90